Harwood, Washington
Current Conditions -  °F | °C
As of 4:53 AM on Friday 28 Nov 2014 (Local Time) from KYKM Reporting Station
Clear Clear  
Wind Chill: 55°   Ceiling: Unl
Heat Index: 55°   Visibility: 10mi
Dew Point: 44°   Wind: 25mph
Humidity: 67%   Direction: 190°S
Pressure: 29.56"   Gusts: 35mph
Location:  46.5979°N, 120.534°W
Report Text: KYKM 281253Z AUTO 19022G30KT 10SM CLR 13/07 A2956 RMK AO2 PK WND 19030/1252 WSHFT 1153 SLP010 T01280067
Loading
Personal Weather Stations






























Interactive Weather Map New forecast layout! Learn more

10-Day Weather Forecast

Advertisements
Track Severe Weather on mobile